ITY52 LIML-LEMH
Flight info
| Callsign | ITY52 |
|---|---|
| Flight time | 1h 7m |
| Altitude | 35000 |
| Route | GEN DCT TALEP DCT LONSU DCT RARQU DCT BALEN DCT RIXOT |
| Aircraft | A319/M-SDE3FGHIRWY/LB1 |
Departure
| Time | 2026-04-26 20:47 |
|---|---|
| Airport | Milano Linate Airport (LIML) |
Arrival
| Time | 2026-04-26 21:54 |
|---|---|
| Airport | Menorca Airport (LEMH) |
| Time | Latitude | Longitude | Altitude | Speed | Heading |
|---|---|---|---|---|---|
| 2026-04-26 20:18 | 45.45734 | 9.27899 | 362 ft | 0 kts | 90° |
| 2026-04-26 20:40 | 45.45734 | 9.27903 | 362 ft | 0 kts | 89° |
| 2026-04-26 20:40 | 45.45733 | 9.27937 | 362 ft | 8 kts | 97° |
| 2026-04-26 20:40 | 45.45656 | 9.27983 | 362 ft | 17 kts | 172° |
| 2026-04-26 20:40 | 45.45525 | 9.27982 | 362 ft | 12 kts | 178° |
| 2026-04-26 20:41 | 45.45434 | 9.27980 | 361 ft | 13 kts | 183° |
| 2026-04-26 20:41 | 45.45343 | 9.27947 | 361 ft | 14 kts | 199° |
| 2026-04-26 20:41 | 45.45281 | 9.27916 | 360 ft | 9 kts | 210° |
| 2026-04-26 20:41 | 45.45215 | 9.27880 | 359 ft | 11 kts | 192° |
| 2026-04-26 20:42 | 45.45133 | 9.27874 | 359 ft | 12 kts | 176° |
| 2026-04-26 20:42 | 45.45042 | 9.27885 | 358 ft | 13 kts | 175° |
| 2026-04-26 20:42 | 45.44946 | 9.27904 | 358 ft | 14 kts | 166° |
| 2026-04-26 20:42 | 45.44845 | 9.27938 | 357 ft | 15 kts | 171° |
| 2026-04-26 20:43 | 45.44738 | 9.27956 | 356 ft | 15 kts | 175° |
| 2026-04-26 20:43 | 45.44628 | 9.27965 | 355 ft | 16 kts | 174° |
| 2026-04-26 20:43 | 45.44511 | 9.27979 | 354 ft | 17 kts | 175° |
| 2026-04-26 20:43 | 45.44387 | 9.27991 | 353 ft | 18 kts | 176° |
| 2026-04-26 20:44 | 45.44256 | 9.28005 | 351 ft | 19 kts | 173° |
| 2026-04-26 20:44 | 45.44119 | 9.28016 | 350 ft | 20 kts | 175° |
| 2026-04-26 20:44 | 45.43977 | 9.28038 | 349 ft | 20 kts | 176° |
| 2026-04-26 20:44 | 45.43832 | 9.28053 | 347 ft | 21 kts | 175° |
| 2026-04-26 20:45 | 45.43682 | 9.28067 | 346 ft | 21 kts | 177° |
| 2026-04-26 20:45 | 45.43544 | 9.28083 | 345 ft | 10 kts | 175° |
| 2026-04-26 20:45 | 45.43471 | 9.28063 | 344 ft | 11 kts | 217° |
| 2026-04-26 20:45 | 45.43444 | 9.27955 | 344 ft | 12 kts | 267° |
| 2026-04-26 20:46 | 45.43466 | 9.27837 | 344 ft | 12 kts | 321° |
| 2026-04-26 20:46 | 45.43554 | 9.27809 | 345 ft | 14 kts | 354° |
| 2026-04-26 20:46 | 45.43893 | 9.27766 | 348 ft | 86 kts | 355° |
| 2026-04-26 20:46 | 45.44726 | 9.27684 | 357 ft | 150 kts | 355° |
| 2026-04-26 20:47 | 45.45795 | 9.27640 | 960 ft | 155 kts | 355° |
| 2026-04-26 20:47 | 45.46511 | 9.27616 | 1422 ft | 157 kts | 2° |
| 2026-04-26 20:47 | 45.47638 | 9.28852 | 2347 ft | 170 kts | 62° |
| 2026-04-26 20:47 | 45.47934 | 9.30527 | 2869 ft | 187 kts | 92° |
| 2026-04-26 20:48 | 45.47384 | 9.32263 | 3330 ft | 206 kts | 130° |
| 2026-04-26 20:48 | 45.46350 | 9.33773 | 3796 ft | 224 kts | 134° |
| 2026-04-26 20:48 | 45.45195 | 9.35416 | 4253 ft | 245 kts | 137° |
| 2026-04-26 20:48 | 45.43674 | 9.36619 | 4778 ft | 262 kts | 169° |
| 2026-04-26 20:49 | 45.41833 | 9.36851 | 5377 ft | 275 kts | 176° |
| 2026-04-26 20:49 | 45.39962 | 9.37601 | 6196 ft | 284 kts | 152° |
| 2026-04-26 20:49 | 45.38227 | 9.38890 | 7093 ft | 286 kts | 160° |
| 2026-04-26 20:49 | 45.36280 | 9.39407 | 7952 ft | 288 kts | 177° |
| 2026-04-26 20:50 | 45.34311 | 9.39914 | 8824 ft | 293 kts | 158° |
| 2026-04-26 20:50 | 45.32643 | 9.41495 | 9662 ft | 297 kts | 135° |
| 2026-04-26 20:50 | 45.31205 | 9.43645 | 10492 ft | 301 kts | 132° |
| 2026-04-26 20:50 | 45.29721 | 9.45791 | 11087 ft | 315 kts | 136° |
| 2026-04-26 20:51 | 45.28057 | 9.47929 | 11520 ft | 333 kts | 139° |
| 2026-04-26 20:51 | 45.26220 | 9.50096 | 11909 ft | 351 kts | 140° |
| 2026-04-26 20:51 | 45.24268 | 9.52309 | 12328 ft | 365 kts | 141° |
| 2026-04-26 20:51 | 45.22256 | 9.54529 | 13064 ft | 368 kts | 144° |
| 2026-04-26 20:52 | 45.19926 | 9.56052 | 13794 ft | 371 kts | 168° |
| 2026-04-26 20:52 | 45.17351 | 9.56149 | 14527 ft | 370 kts | 190° |
| 2026-04-26 20:52 | 45.14849 | 9.55337 | 15256 ft | 373 kts | 192° |
| 2026-04-26 20:52 | 45.12216 | 9.55236 | 15888 ft | 381 kts | 172° |
| 2026-04-26 20:53 | 45.09680 | 9.56389 | 16546 ft | 385 kts | 156° |
| 2026-04-26 20:53 | 45.07206 | 9.57778 | 17184 ft | 388 kts | 166° |
| 2026-04-26 20:53 | 45.04525 | 9.57943 | 17723 ft | 389 kts | 191° |
| 2026-04-26 20:53 | 45.02013 | 9.56604 | 18342 ft | 388 kts | 210° |
| 2026-04-26 20:54 | 44.99700 | 9.54607 | 18948 ft | 390 kts | 214° |
| 2026-04-26 20:54 | 44.97400 | 9.52530 | 19505 ft | 394 kts | 213° |
| 2026-04-26 20:54 | 44.95047 | 9.50497 | 20061 ft | 398 kts | 212° |
| 2026-04-26 20:54 | 44.92633 | 9.48490 | 20617 ft | 401 kts | 211° |
| 2026-04-26 20:55 | 44.90211 | 9.46519 | 21143 ft | 405 kts | 211° |
| 2026-04-26 20:55 | 44.87825 | 9.44590 | 21626 ft | 407 kts | 211° |
| 2026-04-26 20:55 | 44.85325 | 9.42574 | 22106 ft | 410 kts | 211° |
| 2026-04-26 20:55 | 44.82839 | 9.40573 | 22588 ft | 414 kts | 211° |
| 2026-04-26 20:56 | 44.80499 | 9.38689 | 23038 ft | 417 kts | 211° |
| 2026-04-26 20:56 | 44.77987 | 9.36667 | 23506 ft | 419 kts | 211° |
| 2026-04-26 20:56 | 44.75440 | 9.34619 | 23963 ft | 422 kts | 211° |
| 2026-04-26 20:56 | 44.72875 | 9.32557 | 24409 ft | 425 kts | 211° |
| 2026-04-26 20:57 | 44.70266 | 9.30462 | 24842 ft | 428 kts | 211° |
| 2026-04-26 20:57 | 44.67685 | 9.28390 | 25262 ft | 431 kts | 211° |
| 2026-04-26 20:57 | 44.65070 | 9.26293 | 25677 ft | 433 kts | 211° |
| 2026-04-26 20:57 | 44.62466 | 9.24208 | 26078 ft | 436 kts | 211° |
| 2026-04-26 20:58 | 44.59808 | 9.22081 | 26475 ft | 439 kts | 211° |
| 2026-04-26 20:58 | 44.57177 | 9.19979 | 26858 ft | 441 kts | 211° |
| 2026-04-26 20:58 | 44.54485 | 9.17831 | 27223 ft | 443 kts | 211° |
| 2026-04-26 20:58 | 44.51825 | 9.15709 | 27572 ft | 446 kts | 211° |
| 2026-04-26 20:59 | 44.49099 | 9.13537 | 27926 ft | 448 kts | 211° |
| 2026-04-26 20:59 | 44.46394 | 9.11386 | 28255 ft | 451 kts | 211° |
| 2026-04-26 20:59 | 44.43660 | 9.09214 | 28590 ft | 453 kts | 211° |
| 2026-04-26 20:59 | 44.40911 | 9.07022 | 28926 ft | 455 kts | 211° |
| 2026-04-26 21:00 | 44.38181 | 9.04824 | 29253 ft | 458 kts | 211° |
| 2026-04-26 21:00 | 44.35395 | 9.02574 | 29588 ft | 459 kts | 211° |
| 2026-04-26 21:00 | 44.32658 | 9.00365 | 30016 ft | 458 kts | 211° |
| 2026-04-26 21:00 | 44.29899 | 8.98140 | 30468 ft | 456 kts | 211° |
| 2026-04-26 21:01 | 44.27156 | 8.95931 | 30891 ft | 455 kts | 211° |
| 2026-04-26 21:01 | 44.24411 | 8.93720 | 31293 ft | 455 kts | 211° |
| 2026-04-26 21:01 | 44.21690 | 8.91531 | 31687 ft | 454 kts | 211° |
| 2026-04-26 21:01 | 44.18950 | 8.89329 | 32075 ft | 453 kts | 211° |
| 2026-04-26 21:02 | 44.16244 | 8.87156 | 32452 ft | 452 kts | 211° |
| 2026-04-26 21:02 | 44.13517 | 8.84968 | 32827 ft | 451 kts | 211° |
| 2026-04-26 21:02 | 44.10810 | 8.82797 | 33187 ft | 451 kts | 211° |
| 2026-04-26 21:02 | 44.08077 | 8.80607 | 33536 ft | 450 kts | 211° |
| 2026-04-26 21:03 | 44.05371 | 8.78441 | 33831 ft | 451 kts | 211° |
| 2026-04-26 21:03 | 44.02644 | 8.76261 | 34083 ft | 452 kts | 212° |
| 2026-04-26 21:03 | 43.99928 | 8.74091 | 34322 ft | 453 kts | 212° |
| 2026-04-26 21:03 | 43.97144 | 8.71868 | 34571 ft | 454 kts | 212° |
| 2026-04-26 21:04 | 43.94426 | 8.69698 | 34805 ft | 455 kts | 212° |
| 2026-04-26 21:04 | 43.91687 | 8.67515 | 35031 ft | 456 kts | 212° |
| 2026-04-26 21:04 | 43.89094 | 8.65448 | 35188 ft | 457 kts | 212° |
| 2026-04-26 21:05 | 43.83551 | 8.61033 | 35201 ft | 458 kts | 212° |
| 2026-04-26 21:05 | 43.78023 | 8.56636 | 35203 ft | 458 kts | 212° |
| 2026-04-26 21:06 | 43.72516 | 8.52262 | 35204 ft | 458 kts | 212° |
| 2026-04-26 21:06 | 43.66998 | 8.47887 | 35204 ft | 458 kts | 212° |
| 2026-04-26 21:07 | 43.61482 | 8.43518 | 35204 ft | 458 kts | 212° |
| 2026-04-26 21:07 | 43.55966 | 8.39159 | 35204 ft | 458 kts | 212° |
| 2026-04-26 21:08 | 43.50423 | 8.34784 | 35204 ft | 458 kts | 211° |
| 2026-04-26 21:08 | 43.44523 | 8.31515 | 35206 ft | 460 kts | 199° |
| 2026-04-26 21:09 | 43.38405 | 8.28867 | 35205 ft | 460 kts | 199° |
| 2026-04-26 21:09 | 43.32271 | 8.26190 | 35204 ft | 460 kts | 199° |
| 2026-04-26 21:10 | 43.26163 | 8.23498 | 35204 ft | 460 kts | 199° |
| 2026-04-26 21:10 | 43.20075 | 8.20809 | 35204 ft | 460 kts | 199° |
| 2026-04-26 21:11 | 43.14003 | 8.18126 | 35204 ft | 460 kts | 199° |
| 2026-04-26 21:11 | 43.07886 | 8.15432 | 35204 ft | 460 kts | 199° |
| 2026-04-26 21:12 | 43.01805 | 8.12761 | 35204 ft | 460 kts | 199° |
| 2026-04-26 21:12 | 42.95721 | 8.10092 | 35204 ft | 460 kts | 199° |
| 2026-04-26 21:13 | 42.89609 | 8.07416 | 35204 ft | 460 kts | 199° |
| 2026-04-26 21:13 | 42.83551 | 8.04549 | 35203 ft | 459 kts | 204° |
| 2026-04-26 21:14 | 42.77913 | 8.00610 | 35204 ft | 458 kts | 213° |
| 2026-04-26 21:14 | 42.72809 | 7.95428 | 35204 ft | 456 kts | 223° |
| 2026-04-26 21:15 | 42.68310 | 7.89354 | 35204 ft | 455 kts | 227° |
| 2026-04-26 21:15 | 42.63928 | 7.83187 | 35204 ft | 455 kts | 227° |
| 2026-04-26 21:16 | 42.59537 | 7.77039 | 35204 ft | 455 kts | 227° |
| 2026-04-26 21:16 | 42.55121 | 7.70882 | 35204 ft | 455 kts | 227° |
| 2026-04-26 21:17 | 42.50694 | 7.64731 | 35204 ft | 455 kts | 227° |
| 2026-04-26 21:17 | 42.46297 | 7.58634 | 35204 ft | 455 kts | 227° |
| 2026-04-26 21:18 | 42.41891 | 7.52539 | 35204 ft | 455 kts | 227° |
| 2026-04-26 21:18 | 42.37468 | 7.46434 | 35204 ft | 455 kts | 227° |
| 2026-04-26 21:19 | 42.33039 | 7.40332 | 35204 ft | 455 kts | 227° |
| 2026-04-26 21:19 | 42.28618 | 7.34255 | 35204 ft | 455 kts | 227° |
| 2026-04-26 21:20 | 42.24179 | 7.28167 | 35204 ft | 455 kts | 227° |
| 2026-04-26 21:20 | 42.19730 | 7.22080 | 35204 ft | 455 kts | 227° |
| 2026-04-26 21:21 | 42.15307 | 7.16037 | 35204 ft | 455 kts | 227° |
| 2026-04-26 21:21 | 42.10880 | 7.10002 | 35204 ft | 455 kts | 227° |
| 2026-04-26 21:22 | 42.06438 | 7.03960 | 35204 ft | 455 kts | 227° |
| 2026-04-26 21:22 | 42.01967 | 6.97944 | 35203 ft | 455 kts | 225° |
| 2026-04-26 21:23 | 41.94971 | 6.89337 | 35204 ft | 456 kts | 224° |
| 2026-04-26 21:23 | 41.90300 | 6.83619 | 35204 ft | 456 kts | 224° |
| 2026-04-26 21:24 | 41.85590 | 6.77863 | 35204 ft | 456 kts | 224° |
| 2026-04-26 21:24 | 41.80907 | 6.72153 | 35204 ft | 456 kts | 224° |
| 2026-04-26 21:25 | 41.76249 | 6.66482 | 35204 ft | 456 kts | 224° |
| 2026-04-26 21:25 | 41.71564 | 6.60792 | 35204 ft | 456 kts | 224° |
| 2026-04-26 21:26 | 41.66867 | 6.55098 | 35204 ft | 456 kts | 224° |
| 2026-04-26 21:26 | 41.62169 | 6.49416 | 35204 ft | 456 kts | 224° |
| 2026-04-26 21:27 | 41.57472 | 6.43745 | 35204 ft | 456 kts | 224° |
| 2026-04-26 21:27 | 41.52763 | 6.38074 | 35204 ft | 456 kts | 224° |
| 2026-04-26 21:28 | 41.48068 | 6.32431 | 35204 ft | 456 kts | 223° |
| 2026-04-26 21:28 | 41.43358 | 6.26779 | 35204 ft | 456 kts | 223° |
| 2026-04-26 21:29 | 41.38674 | 6.21171 | 35204 ft | 456 kts | 223° |
| 2026-04-26 21:29 | 41.33966 | 6.15544 | 35204 ft | 456 kts | 223° |
| 2026-04-26 21:30 | 41.29237 | 6.09904 | 35204 ft | 456 kts | 223° |
| 2026-04-26 21:30 | 41.25291 | 6.05208 | 35204 ft | 456 kts | 223° |
| 2026-04-26 21:31 | 41.19789 | 5.98674 | 35204 ft | 456 kts | 223° |
| 2026-04-26 21:31 | 41.15102 | 5.93118 | 34582 ft | 453 kts | 223° |
| 2026-04-26 21:32 | 41.12745 | 5.90327 | 33663 ft | 459 kts | 223° |
| 2026-04-26 21:32 | 41.10345 | 5.87488 | 32672 ft | 464 kts | 223° |
| 2026-04-26 21:32 | 41.07950 | 5.84658 | 31746 ft | 467 kts | 223° |
| 2026-04-26 21:32 | 41.05539 | 5.81813 | 30837 ft | 469 kts | 223° |
| 2026-04-26 21:33 | 41.03097 | 5.78934 | 29893 ft | 471 kts | 223° |
| 2026-04-26 21:33 | 41.00685 | 5.76094 | 28939 ft | 463 kts | 223° |
| 2026-04-26 21:33 | 40.98330 | 5.73327 | 28376 ft | 447 kts | 223° |
| 2026-04-26 21:33 | 40.96092 | 5.70526 | 27852 ft | 442 kts | 227° |
| 2026-04-26 21:34 | 40.94042 | 5.67556 | 27348 ft | 438 kts | 232° |
| 2026-04-26 21:34 | 40.92177 | 5.64412 | 26752 ft | 433 kts | 236° |
| 2026-04-26 21:34 | 40.90429 | 5.61172 | 26174 ft | 429 kts | 237° |
| 2026-04-26 21:34 | 40.88728 | 5.57984 | 25680 ft | 423 kts | 237° |
| 2026-04-26 21:35 | 40.87028 | 5.54797 | 25173 ft | 418 kts | 237° |
| 2026-04-26 21:35 | 40.85358 | 5.51674 | 24668 ft | 413 kts | 237° |
| 2026-04-26 21:35 | 40.83720 | 5.48616 | 24168 ft | 409 kts | 237° |
| 2026-04-26 21:35 | 40.82088 | 5.45576 | 23668 ft | 405 kts | 237° |
| 2026-04-26 21:36 | 40.80462 | 5.42551 | 23166 ft | 401 kts | 237° |
| 2026-04-26 21:36 | 40.79400 | 5.40577 | 22838 ft | 399 kts | 237° |
| 2026-04-26 21:36 | 40.77269 | 5.36622 | 22175 ft | 394 kts | 237° |
| 2026-04-26 21:36 | 40.75688 | 5.33695 | 21683 ft | 391 kts | 236° |
| 2026-04-26 21:37 | 40.74125 | 5.30798 | 21193 ft | 388 kts | 236° |
| 2026-04-26 21:37 | 40.72563 | 5.27900 | 20703 ft | 386 kts | 236° |
| 2026-04-26 21:37 | 40.71022 | 5.25048 | 20218 ft | 382 kts | 236° |
| 2026-04-26 21:37 | 40.69483 | 5.22203 | 19734 ft | 380 kts | 236° |
| 2026-04-26 21:38 | 40.67971 | 5.19411 | 19257 ft | 378 kts | 236° |
| 2026-04-26 21:38 | 40.66439 | 5.16589 | 18771 ft | 376 kts | 236° |
| 2026-04-26 21:38 | 40.64926 | 5.13809 | 18291 ft | 374 kts | 236° |
| 2026-04-26 21:38 | 40.63410 | 5.11023 | 17808 ft | 372 kts | 236° |
| 2026-04-26 21:39 | 40.61918 | 5.08283 | 17330 ft | 371 kts | 236° |
| 2026-04-26 21:39 | 40.60420 | 5.05534 | 16850 ft | 369 kts | 236° |
| 2026-04-26 21:39 | 40.58937 | 5.02814 | 16372 ft | 367 kts | 236° |
| 2026-04-26 21:39 | 40.57438 | 5.00066 | 15888 ft | 365 kts | 236° |
| 2026-04-26 21:40 | 40.55966 | 4.97370 | 15411 ft | 364 kts | 236° |
| 2026-04-26 21:40 | 40.54490 | 4.94669 | 14932 ft | 362 kts | 236° |
| 2026-04-26 21:40 | 40.53040 | 4.92018 | 14460 ft | 360 kts | 236° |
| 2026-04-26 21:40 | 40.51582 | 4.89355 | 13985 ft | 358 kts | 236° |
| 2026-04-26 21:41 | 40.50135 | 4.86713 | 13510 ft | 356 kts | 236° |
| 2026-04-26 21:41 | 40.48681 | 4.84061 | 13035 ft | 354 kts | 236° |
| 2026-04-26 21:41 | 40.47265 | 4.81479 | 12567 ft | 351 kts | 236° |
| 2026-04-26 21:41 | 40.45855 | 4.78911 | 12101 ft | 347 kts | 236° |
| 2026-04-26 21:42 | 40.44451 | 4.76357 | 11634 ft | 343 kts | 236° |
| 2026-04-26 21:42 | 40.43064 | 4.73836 | 11172 ft | 340 kts | 236° |
| 2026-04-26 21:42 | 40.41686 | 4.71340 | 10872 ft | 331 kts | 236° |
| 2026-04-26 21:42 | 40.40369 | 4.68960 | 10724 ft | 317 kts | 235° |
| 2026-04-26 21:43 | 40.38942 | 4.66833 | 10569 ft | 307 kts | 226° |
| 2026-04-26 21:43 | 40.37305 | 4.65095 | 10421 ft | 298 kts | 217° |
| 2026-04-26 21:43 | 40.35613 | 4.63612 | 10287 ft | 287 kts | 216° |
| 2026-04-26 21:43 | 40.33965 | 4.62212 | 10074 ft | 281 kts | 215° |
| 2026-04-26 21:44 | 40.32314 | 4.60812 | 9710 ft | 280 kts | 216° |
| 2026-04-26 21:44 | 40.30691 | 4.59427 | 9366 ft | 279 kts | 216° |
| 2026-04-26 21:44 | 40.29074 | 4.58043 | 9031 ft | 277 kts | 216° |
| 2026-04-26 21:44 | 40.27470 | 4.56668 | 8702 ft | 276 kts | 216° |
| 2026-04-26 21:45 | 40.25866 | 4.55293 | 8373 ft | 273 kts | 216° |
| 2026-04-26 21:45 | 40.24289 | 4.53942 | 8051 ft | 271 kts | 216° |
| 2026-04-26 21:45 | 40.22705 | 4.52585 | 7728 ft | 270 kts | 216° |
| 2026-04-26 21:45 | 40.21140 | 4.51244 | 7408 ft | 269 kts | 216° |
| 2026-04-26 21:46 | 40.19572 | 4.49902 | 7087 ft | 267 kts | 216° |
| 2026-04-26 21:46 | 40.18028 | 4.48581 | 6770 ft | 265 kts | 216° |
| 2026-04-26 21:46 | 40.16485 | 4.47261 | 6453 ft | 264 kts | 216° |
| 2026-04-26 21:46 | 40.14945 | 4.45947 | 6137 ft | 263 kts | 216° |
| 2026-04-26 21:47 | 40.13418 | 4.44643 | 5820 ft | 262 kts | 217° |
| 2026-04-26 21:47 | 40.11896 | 4.43334 | 5506 ft | 261 kts | 216° |
| 2026-04-26 21:47 | 40.10384 | 4.42045 | 5195 ft | 260 kts | 216° |
| 2026-04-26 21:47 | 40.08872 | 4.40763 | 4944 ft | 255 kts | 216° |
| 2026-04-26 21:48 | 40.07420 | 4.39525 | 4872 ft | 244 kts | 217° |
| 2026-04-26 21:48 | 40.06133 | 4.38103 | 4588 ft | 243 kts | 238° |
| 2026-04-26 21:48 | 40.05535 | 4.36135 | 4176 ft | 235 kts | 268° |
| 2026-04-26 21:48 | 40.05742 | 4.34041 | 3857 ft | 231 kts | 291° |
| 2026-04-26 21:49 | 40.06342 | 4.32091 | 3576 ft | 230 kts | 294° |
| 2026-04-26 21:49 | 40.06902 | 4.30125 | 3259 ft | 230 kts | 285° |
| 2026-04-26 21:49 | 40.06820 | 4.28084 | 3047 ft | 231 kts | 250° |
| 2026-04-26 21:49 | 40.05838 | 4.26437 | 2899 ft | 232 kts | 216° |
| 2026-04-26 21:50 | 40.04349 | 4.25645 | 2660 ft | 231 kts | 197° |
| 2026-04-26 21:50 | 40.03321 | 4.25350 | 2528 ft | 228 kts | 192° |
| 2026-04-26 21:50 | 40.01312 | 4.24940 | 2519 ft | 208 kts | 191° |
| 2026-04-26 21:50 | 39.99901 | 4.24673 | 2528 ft | 197 kts | 191° |
| 2026-04-26 21:51 | 39.98599 | 4.24414 | 2520 ft | 184 kts | 192° |
| 2026-04-26 21:51 | 39.97386 | 4.24166 | 2319 ft | 168 kts | 192° |
| 2026-04-26 21:51 | 39.96276 | 4.23935 | 2087 ft | 154 kts | 192° |
| 2026-04-26 21:51 | 39.95373 | 4.23748 | 1897 ft | 143 kts | 193° |
| 2026-04-26 21:52 | 39.94429 | 4.23552 | 1722 ft | 140 kts | 193° |
| 2026-04-26 21:52 | 39.93474 | 4.23353 | 1550 ft | 140 kts | 193° |
| 2026-04-26 21:52 | 39.92498 | 4.23152 | 1367 ft | 139 kts | 193° |
| 2026-04-26 21:52 | 39.91540 | 4.22956 | 1184 ft | 139 kts | 192° |
| 2026-04-26 21:53 | 39.90585 | 4.22758 | 980 ft | 139 kts | 193° |
| 2026-04-26 21:53 | 39.89642 | 4.22562 | 798 ft | 138 kts | 193° |
| 2026-04-26 21:53 | 39.88678 | 4.22367 | 624 ft | 138 kts | 191° |
| 2026-04-26 21:53 | 39.87736 | 4.22185 | 436 ft | 138 kts | 193° |
| 2026-04-26 21:54 | 39.86789 | 4.21976 | 304 ft | 134 kts | 192° |
| 2026-04-26 21:54 | 39.85991 | 4.21795 | 297 ft | 96 kts | 188° |
| 2026-04-26 21:54 | 39.85430 | 4.21695 | 283 ft | 65 kts | 192° |
| 2026-04-26 21:54 | 39.85200 | 4.21647 | 279 ft | 17 kts | 206° |
| 2026-04-26 21:55 | 39.85112 | 4.21699 | 278 ft | 13 kts | 132° |
| 2026-04-26 21:55 | 39.85068 | 4.21811 | 277 ft | 15 kts | 88° |
| 2026-04-26 21:55 | 39.85155 | 4.21880 | 276 ft | 16 kts | 10° |
| 2026-04-26 21:55 | 39.85270 | 4.21901 | 276 ft | 17 kts | 9° |
| 2026-04-26 21:56 | 39.85391 | 4.21925 | 277 ft | 17 kts | 8° |
| 2026-04-26 21:56 | 39.85504 | 4.21948 | 280 ft | 15 kts | 9° |
| 2026-04-26 21:56 | 39.85569 | 4.21962 | 284 ft | 5 kts | 10° |
| 2026-04-26 21:56 | 39.85657 | 4.21976 | 287 ft | 10 kts | 2° |
| 2026-04-26 21:57 | 39.85724 | 4.21993 | 290 ft | 9 kts | 11° |
| 2026-04-26 21:57 | 39.85785 | 4.22006 | 291 ft | 8 kts | 8° |
| 2026-04-26 21:57 | 39.85854 | 4.22019 | 292 ft | 11 kts | 7° |
| 2026-04-26 21:57 | 39.85946 | 4.22037 | 292 ft | 15 kts | 8° |
| 2026-04-26 21:58 | 39.86064 | 4.22063 | 290 ft | 19 kts | 7° |
| 2026-04-26 21:58 | 39.86185 | 4.22110 | 287 ft | 17 kts | 65° |
| 2026-04-26 21:58 | 39.86207 | 4.22257 | 278 ft | 19 kts | 28° |
| 2026-04-26 21:58 | 39.86322 | 4.22287 | 268 ft | 13 kts | 11° |
| 2026-04-26 21:59 | 39.86404 | 4.22303 | 267 ft | 8 kts | 6° |
| 2026-04-26 21:59 | 39.86454 | 4.22315 | 270 ft | 5 kts | 10° |
| 2026-04-26 21:59 | 39.86483 | 4.22321 | 272 ft | 3 kts | 7° |
| 2026-04-26 21:59 | 39.86499 | 4.22324 | 273 ft | 0 kts | 7° |
| 2026-04-26 22:00 | 39.86541 | 4.22333 | 275 ft | 10 kts | 9° |
| 2026-04-26 22:00 | 39.86602 | 4.22344 | 278 ft | 6 kts | 7° |
| 2026-04-26 22:00 | 39.86637 | 4.22352 | 280 ft | 4 kts | 8° |
| 2026-04-26 22:00 | 39.86665 | 4.22358 | 282 ft | 4 kts | 10° |
| 2026-04-26 22:01 | 39.86700 | 4.22365 | 285 ft | 5 kts | 17° |
| 2026-04-26 22:01 | 39.86711 | 4.22384 | 285 ft | 2 kts | 67° |
| 2026-04-26 22:01 | 39.86716 | 4.22405 | 286 ft | 0 kts | 83° |
| 2026-04-26 22:01 | 39.86717 | 4.22426 | 286 ft | 0 kts | 91° |
| 2026-04-26 22:02 | 39.86716 | 4.22444 | 286 ft | 2 kts | 96° |
| 2026-04-26 22:02 | 39.86715 | 4.22451 | 286 ft | 1 kts | 97° |
| 2026-04-26 22:02 | 39.86713 | 4.22464 | 285 ft | 0 kts | 98° |